Time;durP1;ratioP1;P1;durP2;ratioP2;P2;SDS_P1;SDS_P2;PMS_P1;PMS_P2;Temp;Humidity;BMP_temperature;BMP_pressure;BME280_temperature;BME280_humidity;BME280_pressure;Samples;Min_cycle;Max_cycle;Signal;HPM_P1;HPM_P2
2021/08/20 00:01:14;;;;;;;0.10;0.10;;;;;;;;;;5072308;28;20422;-92
2021/08/20 00:03:41;;;;;;;0.10;0.10;;;;;;;;;;5072179;28;20059;-92
2021/08/20 00:06:07;;;;;;;0.10;0.10;;;;;;;;;;5072209;28;20032;-92
2021/08/20 00:08:33;;;;;;;0.10;0.10;;;;;;;;;;5088822;28;20032;-92
2021/08/20 00:11:03;;;;;;;0.10;0.10;;;;;;;;;;5071755;28;20403;-92
2021/08/20 00:13:29;;;;;;;0.10;0.10;;;;;;;;;;5088645;28;20055;-92
2021/08/20 00:15:55;;;;;;;0.20;0.20;;;;;;;;;;5071921;28;20044;-92
2021/08/20 00:18:21;;;;;;;0.10;0.10;;;;;;;;;;5071866;28;20040;-92
2021/08/20 00:20:47;;;;;;;0.10;0.10;;;;;;;;;;5071811;28;20039;-92
2021/08/20 00:23:14;;;;;;;0.10;0.10;;;;;;;;;;5088537;28;20101;-92
2021/08/20 00:25:40;;;;;;;0.10;0.10;;;;;;;;;;5054806;28;20071;-91
2021/08/20 00:28:06;;;;;;;0.10;0.10;;;;;;;;;;5071529;28;20398;-92
2021/08/20 00:30:32;;;;;;;0.65;0.20;;;;;;;;;;5071828;28;20071;-92
2021/08/20 00:32:58;;;;;;;0.15;0.15;;;;;;;;;;5059872;28;20064;-91
2021/08/20 00:35:24;;;;;;;0.10;0.10;;;;;;;;;;5048375;28;20144;-92
2021/08/20 00:37:50;;;;;;;0.10;0.10;;;;;;;;;;5064731;28;20426;-93
2021/08/20 00:40:17;;;;;;;0.10;0.10;;;;;;;;;;5032709;28;20111;-93
2021/08/20 00:42:43;;;;;;;0.10;0.10;;;;;;;;;;5032877;28;20392;-92
2021/08/20 00:45:09;;;;;;;0.10;0.10;;;;;;;;;;5064671;28;20396;-92
2021/08/20 00:47:35;;;;;;;0.10;0.10;;;;;;;;;;5064766;28;20045;-93
2021/08/20 00:50:03;;;;;;;0.10;0.10;;;;;;;;;;5064978;28;20037;-93
2021/08/20 00:52:29;;;;;;;0.10;0.10;;;;;;;;;;5064691;28;20037;-93
2021/08/20 00:54:55;;;;;;;0.10;0.10;;;;;;;;;;5064872;28;20133;-95
2021/08/20 00:57:21;;;;;;;0.13;0.13;;;;;;;;;;5031282;28;20050;-94
2021/08/20 00:59:47;;;;;;;0.10;0.10;;;;;;;;;;5064783;28;20038;-92
2021/08/20 01:02:13;;;;;;;0.10;0.10;;;;;;;;;;5047961;28;20038;-92
2021/08/20 01:04:57;;;;;;;0.20;0.20;;;;;;;;;;5065301;28;20468;-96
2021/08/20 01:07:36;;;;;;;0.10;0.10;;;;;;;;;;5050683;28;20480;-95
2021/08/20 01:10:02;;;;;;;0.47;0.38;;;;;;;;;;5063305;28;20099;-93
2021/08/20 01:12:28;;;;;;;0.20;0.20;;;;;;;;;;5064493;28;20049;-92
2021/08/20 01:14:54;;;;;;;0.10;0.10;;;;;;;;;;5048142;28;20451;-92
2021/08/20 01:17:20;;;;;;;0.10;0.10;;;;;;;;;;5064431;28;20029;-92
2021/08/20 01:19:47;;;;;;;0.10;0.10;;;;;;;;;;5047794;28;20120;-91
2021/08/20 01:22:13;;;;;;;0.10;0.10;;;;;;;;;;5064031;28;20045;-92
2021/08/20 01:24:39;;;;;;;0.10;0.10;;;;;;;;;;5047889;28;20467;-91
2021/08/20 01:27:05;;;;;;;0.10;0.10;;;;;;;;;;5047904;28;20042;-92
2021/08/20 01:29:32;;;;;;;0.10;0.10;;;;;;;;;;5064421;28;20037;-92
2021/08/20 01:31:58;;;;;;;0.10;0.10;;;;;;;;;;5047455;28;20029;-92
2021/08/20 01:34:24;;;;;;;0.10;0.10;;;;;;;;;;5051128;28;20069;-93
2021/08/20 01:36:50;;;;;;;0.10;0.10;;;;;;;;;;5067845;28;20029;-93
2021/08/20 01:39:16;;;;;;;0.10;0.10;;;;;;;;;;5068262;28;20037;-93
2021/08/20 01:41:42;;;;;;;0.10;0.10;;;;;;;;;;5088561;28;20049;-95
2021/08/20 01:44:08;;;;;;;0.13;0.13;;;;;;;;;;5071105;28;20037;-92
2021/08/20 01:46:34;;;;;;;0.10;0.10;;;;;;;;;;5071276;28;20065;-93
2021/08/20 01:49:01;;;;;;;0.20;0.20;;;;;;;;;;5088106;28;20106;-93
2021/08/20 01:51:29;;;;;;;0.10;0.10;;;;;;;;;;5087566;28;20045;-94
2021/08/20 01:53:55;;;;;;;0.20;0.20;;;;;;;;;;5087937;28;20076;-93
2021/08/20 01:56:22;;;;;;;0.10;0.10;;;;;;;;;;5070569;28;20127;-93
2021/08/20 01:58:49;;;;;;;0.10;0.10;;;;;;;;;;5071408;28;20047;-95
2021/08/20 02:01:15;;;;;;;0.10;0.10;;;;;;;;;;5087970;28;20063;-94
2021/08/20 02:03:41;;;;;;;0.10;0.10;;;;;;;;;;5054727;28;20045;-94
2021/08/20 02:06:07;;;;;;;0.20;0.20;;;;;;;;;;5071487;28;20201;-93
2021/08/20 02:08:33;;;;;;;0.10;0.10;;;;;;;;;;5071218;28;20390;-92
2021/08/20 02:10:59;;;;;;;0.17;0.17;;;;;;;;;;5071040;28;20041;-92
2021/08/20 02:13:25;;;;;;;0.20;0.20;;;;;;;;;;5070601;28;20049;-92
2021/08/20 02:15:51;;;;;;;0.10;0.10;;;;;;;;;;5070748;28;20065;-93
2021/08/20 02:18:18;;;;;;;0.10;0.10;;;;;;;;;;5054221;28;20055;-94
2021/08/20 02:20:44;;;;;;;0.10;0.10;;;;;;;;;;5070967;28;20087;-93
2021/08/20 02:23:10;;;;;;;0.10;0.10;;;;;;;;;;5087523;28;20041;-92
2021/08/20 02:25:36;;;;;;;0.20;0.20;;;;;;;;;;5070629;28;20047;-90
2021/08/20 02:28:02;;;;;;;0.10;0.10;;;;;;;;;;5071372;28;20152;-93
2021/08/20 02:30:29;;;;;;;0.10;0.10;;;;;;;;;;5087293;28;20037;-92
2021/08/20 02:32:55;;;;;;;0.20;0.20;;;;;;;;;;5069784;28;20073;-93
2021/08/20 02:35:21;;;;;;;0.20;0.20;;;;;;;;;;5053851;28;20041;-94
2021/08/20 02:37:47;;;;;;;0.13;0.13;;;;;;;;;;5087467;28;20033;-94
2021/08/20 02:40:13;;;;;;;0.10;0.10;;;;;;;;;;5070316;28;20475;-91
2021/08/20 02:42:39;;;;;;;0.10;0.10;;;;;;;;;;5070190;28;20484;-91
2021/08/20 02:45:06;;;;;;;0.10;0.10;;;;;;;;;;5086870;28;20041;-93
2021/08/20 02:47:32;;;;;;;0.10;0.10;;;;;;;;;;5053879;28;20424;-93
2021/08/20 02:49:58;;;;;;;1.38;0.20;;;;;;;;;;5087195;28;20044;-93
2021/08/20 02:52:25;;;;;;;0.32;0.32;;;;;;;;;;5069920;28;20072;-94
2021/08/20 02:54:51;;;;;;;0.10;0.10;;;;;;;;;;5086686;28;20098;-92
2021/08/20 02:57:17;;;;;;;0.10;0.10;;;;;;;;;;5086649;28;20049;-92
2021/08/20 02:59:43;;;;;;;0.20;0.20;;;;;;;;;;5069766;28;20037;-93
2021/08/20 03:02:09;;;;;;;0.10;0.10;;;;;;;;;;5069694;28;20115;-93
2021/08/20 03:04:35;;;;;;;0.28;0.28;;;;;;;;;;5086832;28;20039;-93
2021/08/20 03:07:01;;;;;;;0.20;0.20;;;;;;;;;;5070002;28;20091;-94
2021/08/20 03:09:27;;;;;;;0.10;0.10;;;;;;;;;;5070387;28;20060;-95
2021/08/20 03:11:53;;;;;;;0.10;0.10;;;;;;;;;;5069646;28;20041;-93
2021/08/20 03:14:21;;;;;;;0.10;0.10;;;;;;;;;;5071680;28;20033;-93
2021/08/20 03:16:47;;;;;;;0.10;0.10;;;;;;;;;;5069345;28;20135;-92
2021/08/20 03:19:13;;;;;;;0.10;0.10;;;;;;;;;;5086368;28;20036;-92
2021/08/20 03:21:39;;;;;;;0.20;0.20;;;;;;;;;;5052890;28;20389;-92
2021/08/20 03:24:05;;;;;;;0.10;0.10;;;;;;;;;;5086204;28;20040;-90
2021/08/20 03:26:31;;;;;;;0.10;0.10;;;;;;;;;;5069170;28;20491;-92
2021/08/20 03:28:58;;;;;;;0.10;0.10;;;;;;;;;;5068920;28;20464;-90
2021/08/20 03:31:24;;;;;;;0.10;0.10;;;;;;;;;;5085766;28;20036;-92
2021/08/20 03:33:50;;;;;;;0.20;0.20;;;;;;;;;;5068813;28;20064;-92
2021/08/20 03:36:16;;;;;;;0.10;0.10;;;;;;;;;;5086145;28;20040;-92
2021/08/20 03:38:42;;;;;;;0.10;0.10;;;;;;;;;;5085929;28;20122;-94
2021/08/20 03:41:09;;;;;;;0.10;0.10;;;;;;;;;;5053660;28;20033;-91
2021/08/20 03:43:35;;;;;;;0.10;0.10;;;;;;;;;;5069201;28;20041;-92
2021/08/20 03:46:03;;;;;;;0.20;0.20;;;;;;;;;;5068951;28;20398;-92
2021/08/20 03:48:29;;;;;;;0.10;0.10;;;;;;;;;;5052160;28;20048;-94
2021/08/20 03:50:55;;;;;;;0.10;0.10;;;;;;;;;;5068902;28;20185;-92
2021/08/20 03:53:23;;;;;;;0.10;0.10;;;;;;;;;;5052217;28;20057;-93
2021/08/20 03:55:49;;;;;;;0.10;0.10;;;;;;;;;;5068848;28;20071;-93
2021/08/20 03:58:17;;;;;;;0.20;0.20;;;;;;;;;;5068702;28;20048;-93
2021/08/20 04:00:51;;;;;;;0.10;0.10;;;;;;;;;;5069177;28;20103;-94
2021/08/20 04:03:17;;;;;;;0.10;0.10;;;;;;;;;;5067212;28;20037;-94
2021/08/20 04:05:43;;;;;;;0.10;0.10;;;;;;;;;;5069173;28;20049;-94
2021/08/20 04:08:10;;;;;;;0.10;0.10;;;;;;;;;;5053123;28;20052;-95
2021/08/20 04:10:36;;;;;;;0.10;0.10;;;;;;;;;;5068714;28;20040;-93
2021/08/20 04:13:03;;;;;;;0.10;0.10;;;;;;;;;;5068379;28;20079;-93
2021/08/20 04:15:29;;;;;;;0.28;0.28;;;;;;;;;;5068689;28;20037;-93
2021/08/20 04:17:55;;;;;;;0.10;0.10;;;;;;;;;;5085435;28;20033;-93
2021/08/20 04:20:21;;;;;;;0.20;0.20;;;;;;;;;;5085134;28;20415;-93
2021/08/20 04:22:47;;;;;;;0.10;0.10;;;;;;;;;;5085699;28;20037;-93
2021/08/20 04:25:13;;;;;;;0.10;0.10;;;;;;;;;;5068195;28;20128;-93
2021/08/20 04:27:39;;;;;;;0.10;0.10;;;;;;;;;;5085515;28;20460;-92
2021/08/20 04:30:05;;;;;;;0.30;0.30;;;;;;;;;;5085102;28;20437;-91
2021/08/20 04:32:31;;;;;;;0.10;0.10;;;;;;;;;;5057238;28;20139;-90
2021/08/20 04:34:58;;;;;;;0.10;0.10;;;;;;;;;;5071746;28;20040;-92
2021/08/20 04:37:24;;;;;;;0.20;0.20;;;;;;;;;;5071648;28;20036;-94
2021/08/20 04:39:50;;;;;;;0.65;0.30;;;;;;;;;;5088157;28;20368;-91
2021/08/20 04:42:17;;;;;;;0.10;0.10;;;;;;;;;;5070969;28;20040;-92
2021/08/20 04:44:43;;;;;;;0.20;0.20;;;;;;;;;;5088161;28;20067;-92
2021/08/20 04:47:09;;;;;;;0.10;0.10;;;;;;;;;;5070953;28;20049;-92
2021/08/20 04:49:35;;;;;;;0.10;0.10;;;;;;;;;;5071201;28;20040;-90
2021/08/20 04:52:02;;;;;;;0.20;0.20;;;;;;;;;;5087944;28;20033;-93
2021/08/20 04:54:29;;;;;;;0.10;0.10;;;;;;;;;;5071286;28;20123;-92
2021/08/20 04:56:55;;;;;;;0.10;0.10;;;;;;;;;;5071479;28;20539;-92
2021/08/20 04:59:21;;;;;;;0.10;0.10;;;;;;;;;;5088107;28;20058;-92
2021/08/20 05:01:47;;;;;;;0.20;0.20;;;;;;;;;;5071115;28;20055;-91
2021/08/20 05:04:14;;;;;;;0.20;0.20;;;;;;;;;;5088091;28;20036;-91
2021/08/20 05:06:41;;;;;;;0.20;0.20;;;;;;;;;;5072017;28;20126;-92
2021/08/20 05:09:08;;;;;;;0.10;0.10;;;;;;;;;;5088584;28;20033;-91
2021/08/20 05:11:37;;;;;;;0.10;0.10;;;;;;;;;;5087873;28;20048;-91
2021/08/20 05:14:03;;;;;;;0.10;0.10;;;;;;;;;;5087851;28;20043;-91
2021/08/20 05:16:29;;;;;;;1.10;1.00;;;;;;;;;;5091734;28;20040;-91
2021/08/20 05:18:55;;;;;;;0.10;0.10;;;;;;;;;;5091876;28;20496;-92
2021/08/20 05:21:22;;;;;;;0.10;0.10;;;;;;;;;;5074628;28;20059;-93
2021/08/20 05:23:49;;;;;;;0.10;0.10;;;;;;;;;;5074887;28;20036;-92
2021/08/20 05:26:15;;;;;;;0.10;0.10;;;;;;;;;;5058496;28;20147;-95
2021/08/20 05:28:41;;;;;;;0.10;0.10;;;;;;;;;;5092465;28;20060;-93
2021/08/20 05:31:07;;;;;;;0.10;0.10;;;;;;;;;;5075136;28;20128;-94
2021/08/20 05:33:34;;;;;;;0.10;0.10;;;;;;;;;;5074923;28;20072;-92
2021/08/20 05:36:00;;;;;;;0.15;0.15;;;;;;;;;;5068049;28;20120;-93
2021/08/20 05:38:26;;;;;;;0.10;0.10;;;;;;;;;;5037204;28;20091;-94
2021/08/20 05:40:52;;;;;;;0.10;0.10;;;;;;;;;;5036098;28;20045;-94
2021/08/20 05:43:18;;;;;;;0.47;0.47;;;;;;;;;;5051820;28;20045;-90
2021/08/20 05:45:44;;;;;;;0.10;0.10;;;;;;;;;;5051661;28;20512;-90
2021/08/20 05:48:11;;;;;;;0.10;0.10;;;;;;;;;;5051171;28;20042;-92
2021/08/20 05:50:38;;;;;;;0.10;0.10;;;;;;;;;;5068436;28;20041;-94
2021/08/20 05:53:04;;;;;;;0.10;0.10;;;;;;;;;;5052273;28;20045;-93
2021/08/20 05:55:31;;;;;;;0.10;0.10;;;;;;;;;;5051930;28;20136;-90
2021/08/20 05:57:58;;;;;;;0.10;0.10;;;;;;;;;;5034777;28;20037;-92
2021/08/20 06:00:25;;;;;;;0.20;0.20;;;;;;;;;;5034230;28;20037;-91
2021/08/20 06:02:51;;;;;;;0.10;0.10;;;;;;;;;;5034080;28;20037;-92
2021/08/20 06:05:17;;;;;;;0.10;0.10;;;;;;;;;;5035152;28;20080;-91
2021/08/20 06:07:43;;;;;;;0.10;0.10;;;;;;;;;;5034387;28;20126;-92
2021/08/20 06:10:09;;;;;;;0.10;0.10;;;;;;;;;;5033462;28;20041;-91
2021/08/20 06:12:35;;;;;;;0.10;0.10;;;;;;;;;;5033823;28;20441;-91
2021/08/20 06:15:01;;;;;;;0.10;0.10;;;;;;;;;;5017534;28;20445;-93
2021/08/20 06:17:27;;;;;;;0.10;0.10;;;;;;;;;;5033834;28;20045;-91
2021/08/20 06:19:53;;;;;;;0.75;0.75;;;;;;;;;;5033977;28;20037;-94
2021/08/20 06:22:21;;;;;;;0.32;0.32;;;;;;;;;;5034064;28;20495;-92
2021/08/20 06:24:53;;;;;;;0.15;0.15;;;;;;;;;;5034418;28;20045;-94
2021/08/20 06:27:26;;;;;;;0.13;0.13;;;;;;;;;;5037086;28;20041;-94
2021/08/20 06:29:53;;;;;;;0.20;0.20;;;;;;;;;;5034935;28;20428;-94
2021/08/20 06:32:19;;;;;;;0.20;0.20;;;;;;;;;;5022552;28;20060;-94
2021/08/20 06:34:45;;;;;;;0.30;0.25;;;;;;;;;;5057319;28;20070;-94
2021/08/20 06:37:11;;;;;;;0.20;0.20;;;;;;;;;;5075169;28;20090;-93
2021/08/20 06:39:37;;;;;;;0.20;0.20;;;;;;;;;;5040639;28;20040;-92
2021/08/20 06:42:04;;;;;;;0.22;0.22;;;;;;;;;;5057271;28;20033;-92
2021/08/20 06:44:30;;;;;;;0.20;0.20;;;;;;;;;;5076028;28;20055;-90
2021/08/20 06:46:56;;;;;;;0.20;0.20;;;;;;;;;;5056181;28;20151;-90
2021/08/20 06:49:22;;;;;;;0.20;0.20;;;;;;;;;;5040609;28;20075;-92
2021/08/20 06:51:48;;;;;;;0.10;0.10;;;;;;;;;;5061417;28;20040;-91
2021/08/20 06:54:14;;;;;;;0.20;0.20;;;;;;;;;;5079520;28;20048;-91
2021/08/20 06:56:41;;;;;;;0.15;0.15;;;;;;;;;;5062681;28;20046;-90
2021/08/20 06:59:08;;;;;;;0.10;0.10;;;;;;;;;;5051901;28;20051;-91
2021/08/20 07:01:34;;;;;;;0.10;0.10;;;;;;;;;;5069014;28;20044;-93
2021/08/20 07:04:00;;;;;;;0.10;0.10;;;;;;;;;;5069534;28;20060;-92
2021/08/20 07:06:26;;;;;;;0.10;0.10;;;;;;;;;;5068266;28;20088;-92
2021/08/20 07:08:53;;;;;;;0.20;0.20;;;;;;;;;;5067298;28;20040;-91
2021/08/20 07:11:19;;;;;;;0.10;0.10;;;;;;;;;;5067711;28;20040;-95
2021/08/20 07:13:45;;;;;;;0.10;0.10;;;;;;;;;;5067207;28;20071;-91
2021/08/20 07:16:11;;;;;;;0.15;0.15;;;;;;;;;;5080920;28;20044;-96
2021/08/20 07:18:38;;;;;;;0.10;0.10;;;;;;;;;;5046896;28;20089;-90
2021/08/20 07:21:04;;;;;;;0.10;0.10;;;;;;;;;;5064738;28;20059;-92
2021/08/20 07:23:30;;;;;;;0.10;0.10;;;;;;;;;;5046458;28;20037;-92
2021/08/20 07:25:56;;;;;;;0.13;0.13;;;;;;;;;;5064825;28;20339;-89
2021/08/20 07:28:22;;;;;;;0.10;0.10;;;;;;;;;;5083408;28;20064;-91
2021/08/20 07:30:48;;;;;;;0.10;0.10;;;;;;;;;;5062025;28;20036;-90
2021/08/20 07:33:14;;;;;;;0.10;0.10;;;;;;;;;;5070542;28;20036;-89
2021/08/20 07:35:40;;;;;;;0.25;0.25;;;;;;;;;;5079726;28;20048;-90
2021/08/20 07:38:06;;;;;;;0.10;0.10;;;;;;;;;;5078886;28;20032;-90
2021/08/20 07:40:32;;;;;;;0.10;0.10;;;;;;;;;;5051820;28;20106;-93
2021/08/20 07:42:58;;;;;;;0.20;0.20;;;;;;;;;;5056905;28;20044;-93
2021/08/20 07:45:24;;;;;;;0.10;0.10;;;;;;;;;;5055945;28;20044;-92
2021/08/20 07:47:51;;;;;;;0.20;0.20;;;;;;;;;;5039374;28;20395;-92
2021/08/20 07:50:17;;;;;;;0.10;0.10;;;;;;;;;;5073527;28;20106;-91
2021/08/20 07:52:44;;;;;;;0.10;0.10;;;;;;;;;;5038839;28;20541;-91
2021/08/20 07:55:10;;;;;;;0.10;0.10;;;;;;;;;;5055524;28;20101;-91
2021/08/20 07:57:45;;;;;;;0.10;0.10;;;;;;;;;;5071990;28;20131;-91
2021/08/20 08:00:11;;;;;;;0.10;0.10;;;;;;;;;;5054131;28;20040;-94
2021/08/20 08:02:37;;;;;;;0.10;0.10;;;;;;;;;;5053824;28;20044;-94
2021/08/20 08:05:04;;;;;;;0.10;0.10;;;;;;;;;;5056638;28;20076;-93
2021/08/20 08:07:30;;;;;;;0.10;0.10;;;;;;;;;;5055202;28;20033;-91
2021/08/20 08:09:57;;;;;;;0.10;0.10;;;;;;;;;;5022080;28;20127;-91
2021/08/20 08:12:23;;;;;;;0.10;0.10;;;;;;;;;;5054805;28;20044;-91
2021/08/20 08:14:49;;;;;;;0.10;0.10;;;;;;;;;;5038510;28;20052;-91
2021/08/20 08:17:15;;;;;;;0.10;0.10;;;;;;;;;;5073048;28;20070;-90
2021/08/20 08:19:41;;;;;;;0.10;0.10;;;;;;;;;;5022765;28;20101;-92
2021/08/20 08:22:07;;;;;;;0.10;0.10;;;;;;;;;;5021934;28;20099;-91
2021/08/20 08:24:33;;;;;;;0.10;0.10;;;;;;;;;;5054826;28;20372;-92
2021/08/20 08:26:59;;;;;;;0.10;0.10;;;;;;;;;;5055085;28;20100;-93
2021/08/20 08:29:25;;;;;;;0.20;0.20;;;;;;;;;;5055028;28;20122;-92
2021/08/20 08:31:52;;;;;;;0.10;0.10;;;;;;;;;;5054107;28;20115;-88
2021/08/20 08:34:18;;;;;;;0.47;0.47;;;;;;;;;;5071785;28;20187;-88
2021/08/20 08:36:44;;;;;;;0.10;0.10;;;;;;;;;;5053995;28;20044;-89
2021/08/20 08:39:10;;;;;;;0.30;0.30;;;;;;;;;;5071916;28;20044;-90
2021/08/20 08:41:36;;;;;;;0.10;0.10;;;;;;;;;;5071943;28;20075;-89
2021/08/20 08:44:02;;;;;;;0.10;0.10;;;;;;;;;;5054447;28;20135;-90
2021/08/20 08:46:29;;;;;;;0.10;0.10;;;;;;;;;;5055262;28;20037;-89
2021/08/20 08:48:55;;;;;;;0.10;0.10;;;;;;;;;;5055760;28;20036;-90
2021/08/20 08:51:21;;;;;;;0.10;0.10;;;;;;;;;;5058408;28;20044;-91
2021/08/20 08:53:47;;;;;;;0.10;0.10;;;;;;;;;;5075929;28;20098;-88
2021/08/20 08:56:18;;;;;;;0.15;0.15;;;;;;;;;;5076301;28;20064;-90
2021/08/20 08:58:44;;;;;;;0.10;0.10;;;;;;;;;;5041812;28;20040;-90
2021/08/20 09:01:26;;;;;;;0.10;0.10;;;;;;;;;;5056812;28;20103;-92
2021/08/20 09:04:11;;;;;;;0.30;0.30;;;;;;;;;;5056364;28;20041;-92
2021/08/20 09:06:41;;;;;;;0.20;0.20;;;;;;;;;;5071718;28;20136;-92
2021/08/20 09:09:08;;;;;;;0.20;0.20;;;;;;;;;;5088463;28;20044;-92
2021/08/20 09:11:34;;;;;;;0.30;0.30;;;;;;;;;;5088004;28;20045;-91
2021/08/20 09:14:00;;;;;;;0.10;0.10;;;;;;;;;;5058134;28;20067;-91
2021/08/20 09:16:35;;;;;;;0.20;0.20;;;;;;;;;;5041506;28;20110;-92
2021/08/20 09:19:11;;;;;;;0.45;0.20;;;;;;;;;;5076069;28;20040;-91
2021/08/20 09:21:37;;;;;;;0.10;0.10;;;;;;;;;;5076057;28;20044;-91
2021/08/20 09:24:05;;;;;;;0.15;0.15;;;;;;;;;;5075623;28;20052;-91
2021/08/20 09:26:31;;;;;;;0.10;0.10;;;;;;;;;;5057097;28;20368;-88
2021/08/20 09:29:11;;;;;;;0.10;0.10;;;;;;;;;;5040913;28;20036;-90
2021/08/20 09:31:49;;;;;;;0.10;0.10;;;;;;;;;;5057624;28;20151;-89
2021/08/20 09:34:15;;;;;;;0.10;0.10;;;;;;;;;;5075448;28;20243;-90
2021/08/20 09:36:41;;;;;;;0.10;0.10;;;;;;;;;;5057949;28;20040;-90
2021/08/20 09:39:07;;;;;;;0.20;0.20;;;;;;;;;;5040950;28;20051;-90
2021/08/20 09:41:35;;;;;;;0.10;0.10;;;;;;;;;;5057547;28;20037;-90
2021/08/20 09:44:04;;;;;;;0.20;0.20;;;;;;;;;;5041001;28;20433;-90
2021/08/20 09:46:43;;;;;;;0.20;0.20;;;;;;;;;;5041566;28;20119;-90
2021/08/20 09:49:10;;;;;;;0.10;0.10;;;;;;;;;;5039714;28;20037;-89
2021/08/20 09:51:43;;;;;;;0.10;0.10;;;;;;;;;;5090599;28;20060;-89
2021/08/20 09:54:15;;;;;;;0.20;0.20;;;;;;;;;;5090244;28;20506;-89
2021/08/20 09:56:41;;;;;;;0.20;0.20;;;;;;;;;;5075099;28;20040;-89
2021/08/20 09:59:11;;;;;;;0.10;0.10;;;;;;;;;;5090039;28;20041;-88
2021/08/20 10:01:38;;;;;;;0.10;0.10;;;;;;;;;;5089452;28;20040;-88
2021/08/20 10:04:05;;;;;;;0.10;0.10;;;;;;;;;;5075005;28;20036;-91
2021/08/20 10:06:32;;;;;;;0.10;0.10;;;;;;;;;;5076349;28;20518;-90
2021/08/20 10:08:58;;;;;;;0.10;0.10;;;;;;;;;;5093460;28;20040;-90
2021/08/20 10:11:25;;;;;;;0.20;0.20;;;;;;;;;;5076608;28;20037;-90
2021/08/20 10:13:51;;;;;;;0.10;0.10;;;;;;;;;;5076980;28;20047;-90
2021/08/20 10:16:17;;;;;;;0.10;0.10;;;;;;;;;;5093008;28;20041;-90
2021/08/20 10:18:43;;;;;;;0.10;0.10;;;;;;;;;;5093254;28;20161;-90
2021/08/20 10:21:10;;;;;;;0.10;0.10;;;;;;;;;;5076771;28;20209;-91
2021/08/20 10:23:36;;;;;;;0.10;0.10;;;;;;;;;;5092908;28;20043;-91
2021/08/20 10:26:02;;;;;;;0.10;0.10;;;;;;;;;;5092997;28;20060;-90
2021/08/20 10:28:28;;;;;;;0.10;0.10;;;;;;;;;;5092806;28;20047;-91
2021/08/20 10:30:54;;;;;;;0.10;0.10;;;;;;;;;;5090194;28;20032;-89
2021/08/20 10:33:31;;;;;;;0.10;0.10;;;;;;;;;;5060348;28;20428;-90
2021/08/20 10:35:57;;;;;;;0.20;0.20;;;;;;;;;;5034074;28;20033;-89
2021/08/20 10:38:38;;;;;;;0.10;0.10;;;;;;;;;;5065926;28;20489;-88
2021/08/20 10:41:18;;;;;;;0.10;0.10;;;;;;;;;;5049155;28;20044;-89
2021/08/20 10:43:50;;;;;;;0.10;0.10;;;;;;;;;;5048931;28;20099;-89
2021/08/20 10:46:34;;;;;;;0.10;0.10;;;;;;;;;;5033756;28;20044;-89
2021/08/20 10:49:17;;;;;;;0.10;0.10;;;;;;;;;;5048893;28;20499;-88
2021/08/20 10:54:24;;;;;;;0.10;0.10;;;;;;;;;;5033537;28;20048;-88
2021/08/20 10:56:50;;;;;;;0.10;0.10;;;;;;;;;;5033388;28;20056;-88
2021/08/20 10:59:36;;;;;;;0.10;0.10;;;;;;;;;;5048550;28;20045;-87
2021/08/20 11:02:21;;;;;;;0.10;0.10;;;;;;;;;;5033206;28;20052;-87
2021/08/20 11:04:59;;;;;;;4.07;0.73;;;;;;;;;;5033243;28;20120;-88
2021/08/20 11:07:44;;;;;;;0.10;0.10;;;;;;;;;;5048651;28;20076;-89
2021/08/20 11:10:10;;;;;;;0.10;0.10;;;;;;;;;;5048463;28;20038;-89
2021/08/20 11:12:42;;;;;;;0.25;0.25;;;;;;;;;;5047461;28;20045;-87
2021/08/20 11:15:18;;;;;;;0.10;0.10;;;;;;;;;;5032977;28;20041;-87
2021/08/20 11:17:59;;;;;;;0.10;0.10;;;;;;;;;;5048230;28;20029;-89
2021/08/20 11:20:26;;;;;;;0.10;0.10;;;;;;;;;;5033008;28;20037;-87
2021/08/20 11:23:08;;;;;;;0.43;0.30;;;;;;;;;;5064850;28;20124;-87
2021/08/20 11:25:40;;;;;;;0.10;0.10;;;;;;;;;;5032988;28;20396;-87
2021/08/20 11:28:06;;;;;;;;;;;;;;;;;;5064951;28;20370;-88
2021/08/20 11:30:33;;;;;;;0.10;0.10;;;;;;;;;;5033008;28;19917;-90
2021/08/20 11:33:13;;;;;;;0.10;0.10;;;;;;;;;;5070570;28;20060;-89
2021/08/20 11:35:39;;;;;;;0.20;0.20;;;;;;;;;;5084568;28;20119;-89
2021/08/20 11:38:05;;;;;;;0.10;0.10;;;;;;;;;;5068244;28;20033;-89
2021/08/20 11:40:32;;;;;;;0.10;0.10;;;;;;;;;;5067998;28;20040;-88
2021/08/20 11:43:11;;;;;;;0.10;0.10;;;;;;;;;;5084655;28;20139;-90
2021/08/20 11:45:37;;;;;;;0.20;0.20;;;;;;;;;;5068009;28;20492;-88
2021/08/20 11:48:03;;;;;;;0.10;0.10;;;;;;;;;;5067916;28;20040;-87
2021/08/20 11:50:30;;;;;;;0.13;0.13;;;;;;;;;;5084942;28;20140;-87
2021/08/20 11:52:56;;;;;;;0.10;0.10;;;;;;;;;;5067749;28;20053;-87
2021/08/20 11:55:22;;;;;;;0.10;0.10;;;;;;;;;;5052375;28;20041;-87
2021/08/20 11:57:48;;;;;;;0.10;0.10;;;;;;;;;;5084450;28;20037;-87
2021/08/20 12:00:16;;;;;;;0.10;0.10;;;;;;;;;;5052034;28;20086;-89
2021/08/20 12:02:43;;;;;;;0.38;0.38;;;;;;;;;;5084134;28;20399;-92
2021/08/20 12:05:13;;;;;;;0.10;0.10;;;;;;;;;;5067841;28;20033;-92
2021/08/20 12:07:40;;;;;;;0.10;0.10;;;;;;;;;;5067565;28;20033;-90
2021/08/20 12:10:08;;;;;;;0.10;0.10;;;;;;;;;;5083968;28;20044;-87
2021/08/20 12:12:34;;;;;;;0.10;0.10;;;;;;;;;;5083675;28;20037;-86
2021/08/20 12:15:00;;;;;;;0.10;0.10;;;;;;;;;;5084049;28;20052;-88
2021/08/20 12:17:31;;;;;;;0.10;0.10;;;;;;;;;;5084231;28;20044;-87
2021/08/20 12:19:58;;;;;;;0.10;0.10;;;;;;;;;;5082831;28;20037;-87
2021/08/20 12:22:49;;;;;;;0.10;0.10;;;;;;;;;;5083785;28;20041;-90
2021/08/20 12:25:42;;;;;;;0.10;0.10;;;;;;;;;;5066263;28;20044;-89
2021/08/20 12:28:12;;;;;;;0.10;0.10;;;;;;;;;;5051852;28;20040;-86
2021/08/20 12:30:38;;;;;;;0.10;0.10;;;;;;;;;;5083658;28;20102;-87
2021/08/20 12:33:04;;;;;;;0.20;0.20;;;;;;;;;;5083422;28;20061;-87
2021/08/20 12:35:32;;;;;;;0.20;0.20;;;;;;;;;;5067251;28;20051;-89
2021/08/20 12:37:58;;;;;;;0.20;0.20;;;;;;;;;;5084196;28;20037;-86
2021/08/20 12:40:24;;;;;;;0.10;0.10;;;;;;;;;;5066882;28;20033;-88
2021/08/20 12:42:50;;;;;;;0.20;0.20;;;;;;;;;;5066829;28;20040;-88
2021/08/20 12:45:16;;;;;;;0.20;0.20;;;;;;;;;;5083520;28;20124;-88
2021/08/20 12:47:43;;;;;;;0.10;0.10;;;;;;;;;;5051719;28;20459;-88
2021/08/20 12:50:16;;;;;;;0.20;0.20;;;;;;;;;;5083726;28;20041;-87
2021/08/20 12:52:42;;;;;;;0.15;0.15;;;;;;;;;;5083515;28;20095;-88
2021/08/20 12:55:27;;;;;;;0.10;0.10;;;;;;;;;;5051458;28;20029;-86
2021/08/20 12:57:54;;;;;;;0.20;0.20;;;;;;;;;;5067080;28;20507;-89
2021/08/20 13:00:24;;;;;;;0.20;0.20;;;;;;;;;;5051463;28;20087;-88
2021/08/20 13:02:52;;;;;;;0.20;0.20;;;;;;;;;;5083534;28;20475;-89
2021/08/20 13:05:18;;;;;;;0.20;0.20;;;;;;;;;;5067279;28;20053;-87
2021/08/20 13:07:44;;;;;;;0.77;0.30;;;;;;;;;;5052610;28;20498;-88
2021/08/20 13:10:10;;;;;;;0.10;0.10;;;;;;;;;;5061384;28;20329;-90
2021/08/20 13:12:36;;;;;;;0.10;0.10;;;;;;;;;;5065489;28;20044;-89
2021/08/20 13:15:02;;;;;;;0.20;0.20;;;;;;;;;;5035351;28;20042;-89
2021/08/20 13:17:28;;;;;;;0.47;0.22;;;;;;;;;;5046690;28;20041;-89
2021/08/20 13:19:56;;;;;;;0.20;0.20;;;;;;;;;;5031526;28;20448;-90
2021/08/20 13:22:22;;;;;;;0.22;0.22;;;;;;;;;;5046478;28;20477;-89
2021/08/20 13:24:48;;;;;;;0.15;0.15;;;;;;;;;;5046621;28;20116;-88
2021/08/20 13:27:14;;;;;;;0.20;0.20;;;;;;;;;;5046618;28;20120;-88
2021/08/20 13:29:40;;;;;;;0.20;0.20;;;;;;;;;;5031513;28;20038;-89
2021/08/20 13:32:06;;;;;;;0.20;0.20;;;;;;;;;;5031338;28;20041;-90
2021/08/20 13:34:32;;;;;;;0.10;0.10;;;;;;;;;;5046556;28;20114;-89
2021/08/20 13:36:58;;;;;;;0.10;0.10;;;;;;;;;;5049164;28;20112;-88
2021/08/20 13:39:24;;;;;;;0.15;0.15;;;;;;;;;;5050214;28;20183;-89
2021/08/20 13:41:50;;;;;;;0.13;0.13;;;;;;;;;;5049834;28;20041;-89
2021/08/20 13:44:17;;;;;;;0.30;0.30;;;;;;;;;;5050054;28;20064;-90
2021/08/20 13:46:43;;;;;;;0.30;0.30;;;;;;;;;;5049822;28;20041;-91
2021/08/20 13:49:14;;;;;;;0.20;0.20;;;;;;;;;;5049964;28;20033;-90
2021/08/20 13:51:40;;;;;;;0.10;0.10;;;;;;;;;;5049329;28;20105;-89
2021/08/20 13:54:06;;;;;;;0.10;0.10;;;;;;;;;;5049612;28;20561;-89
2021/08/20 13:56:32;;;;;;;0.30;0.30;;;;;;;;;;5049930;28;20440;-89
2021/08/20 13:58:58;;;;;;;0.30;0.30;;;;;;;;;;5053440;28;20080;-89
2021/08/20 14:01:25;;;;;;;0.20;0.20;;;;;;;;;;5057244;28;20053;-89
2021/08/20 14:03:51;;;;;;;0.10;0.10;;;;;;;;;;5055345;28;20041;-91
2021/08/20 14:06:17;;;;;;;0.43;0.38;;;;;;;;;;5037359;28;20041;-91
2021/08/20 14:08:43;;;;;;;0.10;0.10;;;;;;;;;;5050000;28;20124;-88
2021/08/20 14:11:09;;;;;;;0.20;0.20;;;;;;;;;;5050030;28;20116;-89
2021/08/20 14:13:35;;;;;;;0.25;0.25;;;;;;;;;;5049604;28;20037;-90
2021/08/20 14:16:01;;;;;;;0.43;0.43;;;;;;;;;;5050971;28;20041;-90
2021/08/20 14:18:27;;;;;;;0.10;0.10;;;;;;;;;;5020887;28;20045;-88
2021/08/20 14:20:53;;;;;;;0.10;0.10;;;;;;;;;;5055103;28;20412;-90
2021/08/20 14:23:19;;;;;;;0.10;0.10;;;;;;;;;;5054088;28;20041;-91
2021/08/20 14:25:45;;;;;;;0.10;0.10;;;;;;;;;;5036614;28;20040;-87
2021/08/20 14:28:12;;;;;;;0.10;0.10;;;;;;;;;;5054092;28;20040;-95
2021/08/20 14:30:38;;;;;;;0.10;0.10;;;;;;;;;;5022231;28;20052;-95
2021/08/20 14:33:08;;;;;;;0.20;0.20;;;;;;;;;;5022049;28;20049;-87
2021/08/20 14:35:34;;;;;;;0.10;0.10;;;;;;;;;;5053812;28;20438;-88
2021/08/20 14:38:00;;;;;;;0.22;0.20;;;;;;;;;;5052174;28;20538;-87
2021/08/20 14:40:26;;;;;;;0.32;0.20;;;;;;;;;;5052697;28;20456;-87
2021/08/20 14:42:52;;;;;;;0.20;0.20;;;;;;;;;;5052851;28;20041;-90
2021/08/20 14:45:18;;;;;;;0.10;0.10;;;;;;;;;;5054113;28;20115;-89
2021/08/20 14:47:44;;;;;;;0.20;0.20;;;;;;;;;;5052718;28;20065;-89